Time;durP1;ratioP1;P1;durP2;ratioP2;P2;SDS_P1;SDS_P2;PMS_P1;PMS_P2;Temp;Humidity;BMP_temperature;BMP_pressure;BME280_temperature;BME280_humidity;BME280_pressure;Samples;Min_cycle;Max_cycle;Signal;HPM_P1;HPM_P2
2024/04/06 00:01:22;;;;;;;6.40;1.90;;;13.00;99.90;;;;;;5033219;28;20033;-71
2024/04/06 00:03:49;;;;;;;6.32;2.25;;;12.90;99.90;;;;;;5035013;28;20094;-71
2024/04/06 00:06:15;;;;;;;5.85;1.95;;;12.80;99.90;;;;;;5037717;28;20455;-71
2024/04/06 00:08:41;;;;;;;10.52;2.95;;;12.90;99.90;;;;;;5035651;28;20036;-71
2024/04/06 00:11:08;;;;;;;5.22;2.35;;;12.80;99.90;;;;;;5035822;28;20099;-71
2024/04/06 00:13:34;;;;;;;9.10;3.25;;;12.70;99.90;;;;;;5037741;28;20397;-71
2024/04/06 00:15:59;;;;;;;9.35;2.47;;;12.60;99.90;;;;;;5035653;28;20033;-71
2024/04/06 00:18:25;;;;;;;5.00;2.08;;;12.70;99.90;;;;;;5035191;28;20528;-71
2024/04/06 00:20:51;;;;;;;6.80;2.70;;;12.80;99.90;;;;;;5037782;28;20051;-70
2024/04/06 00:23:17;;;;;;;9.52;2.75;;;12.80;99.90;;;;;;5035586;28;20082;-71
2024/04/06 00:25:43;;;;;;;9.27;2.50;;;12.70;99.90;;;;;;5036028;28;20033;-71
2024/04/06 00:28:08;;;;;;;12.63;2.42;;;12.50;99.90;;;;;;5036863;28;20024;-71
2024/04/06 00:30:34;;;;;;;6.00;2.55;;;12.40;99.90;;;;;;5035032;28;20029;-71
2024/04/06 00:32:59;;;;;;;4.93;2.03;;;12.50;99.90;;;;;;5035177;28;20044;-71
2024/04/06 00:35:25;;;;;;;9.13;3.25;;;12.50;99.90;;;;;;5034002;28;20045;-71
2024/04/06 00:37:51;;;;;;;9.73;2.83;;;12.50;99.90;;;;;;5035088;28;20059;-71
2024/04/06 00:40:17;;;;;;;11.07;2.38;;;12.40;99.90;;;;;;5035350;28;20106;-71
2024/04/06 00:42:44;;;;;;;4.53;2.13;;;12.50;99.90;;;;;;5035068;28;20032;-71
2024/04/06 00:45:09;;;;;;;5.32;1.80;;;12.40;99.90;;;;;;5035448;28;20141;-71
2024/04/06 00:47:35;;;;;;;8.55;2.45;;;12.20;99.90;;;;;;5035801;28;20024;-71
2024/04/06 00:50:11;;;;;;;7.43;2.55;;;12.20;99.90;;;;;;5036503;28;20139;-71
2024/04/06 00:52:37;;;;;;;8.70;2.20;;;12.20;99.90;;;;;;5035011;28;20037;-71
2024/04/06 00:55:03;;;;;;;7.72;2.33;;;12.20;99.90;;;;;;5034257;28;20470;-71
2024/04/06 00:57:30;;;;;;;6.65;2.25;;;12.20;99.90;;;;;;5035908;28;20041;-70
2024/04/06 00:59:56;;;;;;;8.35;2.35;;;12.30;99.90;;;;;;5035279;28;20074;-71
2024/04/06 01:02:22;;;;;;;7.30;2.60;;;12.20;99.90;;;;;;5034851;28;20566;-71
2024/04/06 01:04:47;;;;;;;10.52;2.28;;;12.20;99.90;;;;;;5035556;28;20726;-70
2024/04/06 01:07:13;;;;;;;8.98;2.83;;;12.10;99.90;;;;;;5035092;28;20032;-71
2024/04/06 01:09:39;;;;;;;7.28;2.55;;;12.00;99.90;;;;;;5036951;28;20044;-71
2024/04/06 01:12:04;;;;;;;8.35;2.65;;;12.00;99.90;;;;;;5035540;28;20045;-71
2024/04/06 01:14:30;;;;;;;7.03;2.38;;;12.00;99.90;;;;;;5032431;28;20725;-71
2024/04/06 01:16:56;;;;;;;7.63;2.60;;;12.00;99.90;;;;;;5035918;28;20498;-71
2024/04/06 01:19:21;;;;;;;5.00;2.20;;;12.00;99.90;;;;;;5035377;28;20040;-71
2024/04/06 01:21:47;;;;;;;9.77;2.67;;;12.00;99.90;;;;;;5035161;28;20172;-71
2024/04/06 01:24:30;;;;;;;5.82;2.13;;;11.90;99.90;;;;;;5033251;28;20490;-71
2024/04/06 01:26:56;;;;;;;7.20;2.65;;;12.00;99.90;;;;;;5036037;28;21122;-71
2024/04/06 01:29:25;;;;;;;8.70;2.17;;;12.20;99.90;;;;;;5033429;28;20040;-70
2024/04/06 01:31:51;;;;;;;6.97;2.85;;;12.40;99.90;;;;;;5033501;28;20072;-71
2024/04/06 01:34:16;;;;;;;5.40;2.67;;;12.50;99.90;;;;;;5034118;28;20151;-71
2024/04/06 01:36:42;;;;;;;7.95;2.40;;;12.40;99.90;;;;;;5036685;28;20039;-71
2024/04/06 01:39:08;;;;;;;9.63;3.03;;;12.30;99.90;;;;;;5034536;28;20132;-71
2024/04/06 01:41:39;;;;;;;8.35;2.63;;;12.40;99.90;;;;;;5033622;28;20040;-71
2024/04/06 01:44:05;;;;;;;6.93;1.88;;;12.40;99.90;;;;;;5035237;28;20502;-71
2024/04/06 01:46:31;;;;;;;5.65;2.83;;;12.20;99.90;;;;;;5034602;28;20040;-71
2024/04/06 01:48:58;;;;;;;4.60;2.40;;;12.10;99.90;;;;;;5033990;28;20079;-71
2024/04/06 01:51:24;;;;;;;5.32;2.35;;;12.20;99.90;;;;;;5034215;28;20048;-71
2024/04/06 01:53:50;;;;;;;6.47;2.55;;;12.20;99.90;;;;;;5035988;28;20040;-71
2024/04/06 01:56:15;;;;;;;6.05;2.20;;;12.40;99.90;;;;;;5033899;28;20053;-71
2024/04/06 01:58:41;;;;;;;5.88;2.88;;;12.50;99.90;;;;;;5032537;28;20029;-71
2024/04/06 02:01:07;;;;;;;6.57;2.70;;;12.30;99.90;;;;;;5035067;28;20029;-71
2024/04/06 02:03:35;;;;;;;8.30;2.60;;;12.40;99.90;;;;;;5035079;28;20037;-71
2024/04/06 02:06:01;;;;;;;5.93;2.38;;;12.30;99.90;;;;;;5033528;28;20487;-71
2024/04/06 02:08:28;;;;;;;5.43;2.65;;;12.20;99.90;;;;;;5035804;28;20037;-71
2024/04/06 02:10:54;;;;;;;8.73;3.25;;;12.10;99.90;;;;;;5034142;28;20029;-71
2024/04/06 02:13:19;;;;;;;9.02;2.47;;;12.10;99.90;;;;;;5032876;28;20633;-71
2024/04/06 02:15:45;;;;;;;5.20;2.10;;;12.00;99.90;;;;;;5035437;28;20040;-71
2024/04/06 02:18:11;;;;;;;6.68;2.58;;;12.00;99.90;;;;;;5034480;28;20120;-71
2024/04/06 02:20:38;;;;;;;9.10;2.58;;;12.00;99.90;;;;;;5035210;28;20068;-71
2024/04/06 02:23:04;;;;;;;7.25;2.40;;;12.00;99.90;;;;;;5033307;28;20040;-71
2024/04/06 02:25:31;;;;;;;6.80;2.38;;;11.90;99.90;;;;;;5031970;28;20033;-71
2024/04/06 02:27:56;;;;;;;6.93;2.90;;;11.90;99.90;;;;;;5033049;28;20044;-71
2024/04/06 02:30:22;;;;;;;5.85;2.90;;;12.00;99.90;;;;;;5034184;28;20029;-71
2024/04/06 02:32:51;;;;;;;8.13;2.90;;;12.20;99.90;;;;;;5034236;28;20076;-71
2024/04/06 02:35:17;;;;;;;8.18;2.20;;;12.10;99.90;;;;;;5034062;28;20064;-71
2024/04/06 02:37:43;;;;;;;8.52;2.75;;;12.10;99.90;;;;;;5034406;28;20133;-71
2024/04/06 02:40:10;;;;;;;11.38;2.63;;;12.20;99.90;;;;;;5033133;28;20458;-71
2024/04/06 02:42:36;;;;;;;5.53;2.60;;;12.20;99.90;;;;;;5035862;28;20126;-71
2024/04/06 02:45:03;;;;;;;12.32;3.03;;;12.20;99.90;;;;;;5035679;28;20033;-71
2024/04/06 02:47:29;;;;;;;5.28;1.88;;;12.10;99.90;;;;;;5038292;28;20114;-71
2024/04/06 02:49:55;;;;;;;7.32;2.53;;;11.90;99.90;;;;;;5037960;28;20112;-71
2024/04/06 02:52:21;;;;;;;6.18;2.63;;;11.90;99.90;;;;;;5036870;28;20041;-71
2024/04/06 02:54:48;;;;;;;10.68;2.55;;;11.90;99.90;;;;;;5036654;28;20033;-71
2024/04/06 02:57:13;;;;;;;8.85;2.60;;;11.90;99.90;;;;;;5038356;28;20422;-71
2024/04/06 02:59:39;;;;;;;4.95;2.45;;;11.90;99.90;;;;;;5037823;28;20037;-71
2024/04/06 03:02:05;;;;;;;10.95;2.15;;;11.90;99.90;;;;;;5035521;28;20071;-71
2024/04/06 03:04:31;;;;;;;13.20;3.28;;;12.00;99.90;;;;;;5032021;28;20063;-71
2024/04/06 03:06:57;;;;;;;6.68;3.33;;;11.90;99.90;;;;;;5033028;28;20045;-71
2024/04/06 03:09:23;;;;;;;11.35;2.72;;;11.90;99.90;;;;;;5030609;28;20037;-72
2024/04/06 03:11:48;;;;;;;10.25;2.92;;;12.00;99.90;;;;;;5032655;28;20044;-71
2024/04/06 03:14:14;;;;;;;7.32;2.22;;;12.00;99.90;;;;;;5032540;28;20402;-72
2024/04/06 03:16:40;;;;;;;7.40;2.67;;;12.00;99.90;;;;;;5033166;28;20530;-72
2024/04/06 03:19:05;;;;;;;6.95;2.65;;;12.00;99.90;;;;;;5029849;28;20041;-72
2024/04/06 03:21:31;;;;;;;9.20;3.33;;;12.00;99.90;;;;;;5030291;28;20040;-72
2024/04/06 03:23:57;;;;;;;11.80;3.20;;;12.00;99.90;;;;;;5032989;28;20040;-71
2024/04/06 03:26:22;;;;;;;8.05;2.92;;;11.80;99.90;;;;;;5029705;28;20041;-72
2024/04/06 03:28:48;;;;;;;9.10;3.17;;;11.90;99.90;;;;;;5030703;28;20033;-71
2024/04/06 03:31:14;;;;;;;9.02;3.40;;;11.90;99.90;;;;;;5030030;28;20425;-71
2024/04/06 03:33:40;;;;;;;9.50;4.22;;;12.00;99.90;;;;;;5029091;28;20171;-71
2024/04/06 03:36:05;;;;;;;8.15;3.17;;;12.00;99.90;;;;;;5029477;28;20405;-72
2024/04/06 03:38:31;;;;;;;7.07;2.45;;;11.70;99.90;;;;;;5028481;28;20040;-71
2024/04/06 03:40:57;;;;;;;8.38;3.45;;;11.70;99.90;;;;;;5029818;28;20057;-71
2024/04/06 03:43:23;;;;;;;7.60;3.53;;;11.60;99.90;;;;;;5030757;28;20112;-72
2024/04/06 03:45:50;;;;;;;10.30;3.33;;;11.60;99.90;;;;;;5030980;28;20064;-72
2024/04/06 03:48:16;;;;;;;10.60;3.10;;;11.60;99.90;;;;;;5030063;28;20166;-72
2024/04/06 03:50:42;;;;;;;10.60;3.42;;;11.70;99.90;;;;;;5030107;28;20167;-71
2024/04/06 03:53:07;;;;;;;9.40;3.20;;;11.60;99.90;;;;;;5028679;28;20040;-71
2024/04/06 03:55:33;;;;;;;10.57;3.30;;;11.50;99.90;;;;;;5031978;28;20066;-71
2024/04/06 03:57:58;;;;;;;9.60;3.72;;;11.40;99.90;;;;;;5029286;28;20028;-72
2024/04/06 04:00:24;;;;;;;7.78;3.00;;;11.50;99.90;;;;;;5027989;28;20535;-71
2024/04/06 04:02:50;;;;;;;10.88;3.25;;;11.50;99.90;;;;;;5030137;28;20052;-72
2024/04/06 04:05:15;;;;;;;13.40;3.33;;;11.60;99.90;;;;;;5028777;28;20041;-71
2024/04/06 04:07:41;;;;;;;7.45;2.63;;;11.90;99.90;;;;;;5028486;28;20639;-71
2024/04/06 04:10:07;;;;;;;8.60;3.00;;;11.90;99.90;;;;;;5030901;28;20458;-72
2024/04/06 04:12:34;;;;;;;8.55;3.20;;;11.80;99.90;;;;;;5029069;28;20048;-71
2024/04/06 04:15:04;;;;;;;9.30;2.85;;;11.80;99.90;;;;;;5029941;28;20044;-71
2024/04/06 04:17:32;;;;;;;8.02;3.00;;;11.70;99.90;;;;;;5030198;28;20079;-72
2024/04/06 04:19:58;;;;;;;8.90;3.30;;;11.60;99.90;;;;;;5029379;28;20031;-72
2024/04/06 04:22:24;;;;;;;8.30;3.70;;;11.50;99.90;;;;;;5028341;28;20128;-72
2024/04/06 04:24:50;;;;;;;7.78;3.00;;;11.20;99.90;;;;;;5028195;28;20043;-71
2024/04/06 04:27:16;;;;;;;7.20;2.60;;;11.20;99.90;;;;;;5029254;28;20037;-71
2024/04/06 04:29:41;;;;;;;7.57;2.90;;;11.20;99.90;;;;;;5028519;28;20036;-71
2024/04/06 04:32:07;;;;;;;8.45;3.25;;;11.30;99.90;;;;;;5027489;28;20044;-72
2024/04/06 04:34:33;;;;;;;9.70;3.25;;;11.30;99.90;;;;;;5026992;28;20102;-71
2024/04/06 04:36:58;;;;;;;6.25;2.92;;;11.40;99.90;;;;;;5028794;28;20130;-71
2024/04/06 04:39:25;;;;;;;10.15;3.20;;;11.50;99.90;;;;;;5028195;28;20138;-72
2024/04/06 04:41:51;;;;;;;11.32;3.30;;;11.60;99.90;;;;;;5030139;28;20029;-71
2024/04/06 04:44:17;;;;;;;11.00;3.20;;;11.60;99.90;;;;;;5028154;28;20712;-72
2024/04/06 04:46:43;;;;;;;11.35;2.97;;;11.60;99.90;;;;;;5029727;28;20511;-72
2024/04/06 04:49:09;;;;;;;8.27;3.78;;;11.60;99.90;;;;;;5028531;28;20064;-72
2024/04/06 04:51:35;;;;;;;7.90;2.90;;;11.70;99.90;;;;;;5028940;28;20072;-71
2024/04/06 04:54:00;;;;;;;6.30;3.13;;;11.60;99.90;;;;;;5028744;28;20029;-71
2024/04/06 04:56:26;;;;;;;7.20;3.55;;;11.60;99.90;;;;;;5027743;28;20037;-71
2024/04/06 04:58:52;;;;;;;12.15;3.10;;;11.60;99.90;;;;;;5030157;28;20379;-72
2024/04/06 05:01:17;;;;;;;7.28;2.85;;;11.50;99.90;;;;;;5028737;28;20030;-72
2024/04/06 05:03:43;;;;;;;10.40;3.10;;;11.40;99.90;;;;;;5028339;28;20048;-71
2024/04/06 05:06:09;;;;;;;9.25;3.80;;;11.50;99.90;;;;;;5027827;28;20035;-71
2024/04/06 05:08:34;;;;;;;9.57;4.50;;;11.50;99.90;;;;;;5028213;28;20036;-72
2024/04/06 05:11:00;;;;;;;8.52;2.92;;;11.50;99.90;;;;;;5028728;28;20032;-72
2024/04/06 05:13:26;;;;;;;5.80;2.70;;;11.50;99.90;;;;;;5029521;28;20033;-71
2024/04/06 05:15:54;;;;;;;6.18;3.00;;;11.40;99.90;;;;;;5028091;28;20451;-72
2024/04/06 05:18:20;;;;;;;4.80;2.50;;;11.40;99.90;;;;;;5027767;28;20085;-71
2024/04/06 05:20:53;;;;;;;12.40;5.85;;;11.40;99.90;;;;;;5030210;28;20525;-72
2024/04/06 05:23:19;;;;;;;7.13;3.92;;;11.40;99.90;;;;;;5029227;28;20044;-72
2024/04/06 05:25:49;;;;;;;6.15;3.00;;;11.40;99.90;;;;;;5028462;28;20132;-72
2024/04/06 05:28:20;;;;;;;6.70;3.13;;;11.40;99.90;;;;;;5026562;28;20096;-71
2024/04/06 05:30:49;;;;;;;8.65;2.53;;;11.40;99.90;;;;;;5028727;28;20455;-71
2024/04/06 05:33:16;;;;;;;5.45;2.40;;;11.40;99.90;;;;;;5024608;28;20051;-71
2024/04/06 05:35:43;;;;;;;10.57;3.05;;;11.40;99.90;;;;;;5027843;28;20044;-71
2024/04/06 05:38:09;;;;;;;10.00;3.70;;;11.50;99.90;;;;;;5028240;28;20039;-71
2024/04/06 05:40:39;;;;;;;7.03;2.60;;;11.50;99.90;;;;;;5029141;28;20056;-71
2024/04/06 05:43:06;;;;;;;8.45;3.28;;;11.50;99.90;;;;;;5028164;28;20048;-71
2024/04/06 05:45:32;;;;;;;4.88;2.83;;;11.50;99.90;;;;;;5028019;28;20407;-71
2024/04/06 05:48:03;;;;;;;5.18;2.42;;;11.60;99.90;;;;;;5029343;28;20037;-72
2024/04/06 05:50:32;;;;;;;10.07;2.92;;;11.60;99.90;;;;;;5027212;28;20080;-71
2024/04/06 05:52:58;;;;;;;16.30;4.80;;;11.60;99.90;;;;;;5027621;28;20118;-72
2024/04/06 05:55:24;;;;;;;6.35;3.00;;;11.70;99.90;;;;;;5029526;28;20044;-72
2024/04/06 05:57:51;;;;;;;8.50;3.33;;;11.60;99.90;;;;;;5027555;28;20092;-71
2024/04/06 06:00:17;;;;;;;5.78;2.58;;;11.60;99.90;;;;;;5030585;28;20040;-72
2024/04/06 06:02:43;;;;;;;11.07;2.90;;;11.50;99.90;;;;;;5030471;28;20033;-72
2024/04/06 06:05:09;;;;;;;11.15;3.33;;;11.50;99.90;;;;;;5029674;28;20072;-72
2024/04/06 06:07:36;;;;;;;7.68;3.13;;;11.50;99.90;;;;;;5030350;28;20459;-71
2024/04/06 06:10:05;;;;;;;6.78;2.08;;;11.50;99.90;;;;;;5031709;28;20037;-71
2024/04/06 06:12:30;;;;;;;5.30;2.72;;;11.40;99.90;;;;;;5029616;28;20555;-71
2024/04/06 06:14:56;;;;;;;6.85;2.35;;;11.40;99.90;;;;;;5031542;28;20086;-71
2024/04/06 06:17:22;;;;;;;10.13;2.88;;;11.50;99.90;;;;;;5030429;28;20028;-71
2024/04/06 06:19:47;;;;;;;6.70;2.90;;;11.50;99.90;;;;;;5030912;28;20058;-71
2024/04/06 06:22:13;;;;;;;8.85;2.85;;;11.60;99.90;;;;;;5032525;28;20073;-71
2024/04/06 06:24:41;;;;;;;6.60;2.78;;;11.60;99.90;;;;;;5034103;28;20056;-70
2024/04/06 06:27:07;;;;;;;5.97;2.50;;;11.90;99.90;;;;;;5037266;28;20082;-70
2024/04/06 06:29:34;;;;;;;4.43;2.28;;;11.90;99.90;;;;;;5038431;28;20107;-72
2024/04/06 06:31:59;;;;;;;10.35;3.33;;;11.90;99.90;;;;;;5035820;28;20041;-70
2024/04/06 06:34:26;;;;;;;5.60;2.25;;;11.90;99.90;;;;;;5034234;28;20036;-71
2024/04/06 06:36:52;;;;;;;8.30;2.83;;;12.00;99.90;;;;;;5030672;28;20036;-72
2024/04/06 06:39:17;;;;;;;5.47;2.45;;;12.10;99.90;;;;;;5030905;28;20773;-71
2024/04/06 06:41:43;;;;;;;8.50;2.20;;;12.10;99.90;;;;;;5031103;28;20041;-72
2024/04/06 06:44:09;;;;;;;9.70;2.40;;;12.20;99.90;;;;;;5031583;28;20040;-72
2024/04/06 06:46:35;;;;;;;7.40;2.28;;;12.30;99.90;;;;;;5031349;28;20033;-72
2024/04/06 06:49:01;;;;;;;6.97;2.20;;;12.30;99.90;;;;;;5029782;28;20043;-71
2024/04/06 06:51:27;;;;;;;6.20;2.40;;;12.40;99.90;;;;;;5031707;28;20735;-71
2024/04/06 06:53:53;;;;;;;4.25;1.90;;;12.70;99.90;;;;;;5030848;28;20132;-71
2024/04/06 06:56:22;;;;;;;8.32;2.65;;;14.20;99.90;;;;;;5030655;28;20035;-72
2024/04/06 06:58:51;;;;;;;6.40;2.33;;;15.10;99.90;;;;;;5031717;28;20156;-72
2024/04/06 07:01:18;;;;;;;8.10;3.35;;;16.50;99.90;;;;;;5031191;28;20035;-72
2024/04/06 07:03:43;;;;;;;4.95;2.08;;;18.20;99.90;;;;;;5029447;28;20056;-72
2024/04/06 07:06:12;;;;;;;5.65;2.40;;;19.00;99.30;;;;;;5029925;28;20741;-71
2024/04/06 07:08:42;;;;;;;4.97;2.22;;;19.60;98.10;;;;;;5030817;28;20577;-72
2024/04/06 07:11:09;;;;;;;5.55;2.17;;;19.40;98.00;;;;;;5031988;28;20021;-71
2024/04/06 07:13:35;;;;;;;5.13;2.30;;;18.80;99.90;;;;;;5030540;28;20044;-71
2024/04/06 07:16:04;;;;;;;8.45;2.67;;;18.20;99.80;;;;;;5030393;28;20040;-72
2024/04/06 07:18:37;;;;;;;7.38;2.25;;;17.50;99.90;;;;;;5029918;28;20045;-72
2024/04/06 07:21:03;;;;;;;5.38;2.13;;;19.50;98.70;;;;;;5030629;28;20071;-72
2024/04/06 07:23:29;;;;;;;8.40;2.63;;;20.50;98.30;;;;;;5031251;28;20032;-72
2024/04/06 07:25:55;;;;;;;4.82;2.15;;;18.80;98.20;;;;;;5030724;28;20614;-72
2024/04/06 07:28:21;;;;;;;5.70;1.90;;;16.90;99.90;;;;;;5030953;28;20148;-72
2024/04/06 07:30:47;;;;;;;7.25;2.78;;;15.50;99.90;;;;;;5030953;28;20067;-72
2024/04/06 07:33:13;;;;;;;10.45;4.47;;;14.80;99.90;;;;;;5029082;28;20150;-72
2024/04/06 07:35:39;;;;;;;8.45;3.78;;;14.40;99.90;;;;;;5029587;28;20150;-71
2024/04/06 07:38:05;;;;;;;7.68;3.75;;;14.00;99.90;;;;;;5031669;28;20124;-72
2024/04/06 07:40:31;;;;;;;5.93;2.45;;;13.80;99.90;;;;;;5031139;28;20422;-71
2024/04/06 07:42:57;;;;;;;5.75;2.15;;;13.80;99.90;;;;;;5028993;28;20048;-71
2024/04/06 07:45:23;;;;;;;9.40;3.30;;;14.00;99.90;;;;;;5030316;28;20037;-71
2024/04/06 07:47:49;;;;;;;10.43;3.88;;;14.00;99.90;;;;;;5022200;28;20040;-71
2024/04/06 07:50:15;;;;;;;7.55;3.10;;;14.00;99.90;;;;;;5029458;28;20064;-72
2024/04/06 07:52:41;;;;;;;7.15;3.35;;;14.10;99.90;;;;;;5029606;28;20131;-71
2024/04/06 07:55:07;;;;;;;8.82;2.85;;;14.00;99.90;;;;;;5029044;28;20762;-71
2024/04/06 07:57:33;;;;;;;5.88;2.70;;;14.10;99.90;;;;;;5029234;28;20519;-72
2024/04/06 08:00:01;;;;;;;8.63;2.83;;;14.20;99.90;;;;;;5030153;28;20029;-72
2024/04/06 08:02:27;;;;;;;6.65;2.60;;;14.10;99.90;;;;;;5029581;28;20057;-72
2024/04/06 08:04:55;;;;;;;7.07;2.63;;;14.30;99.90;;;;;;5029754;28;20091;-72
2024/04/06 08:07:22;;;;;;;8.80;3.03;;;14.40;99.90;;;;;;5029221;28;20059;-72
2024/04/06 08:09:48;;;;;;;8.38;2.95;;;14.40;99.90;;;;;;5029489;28;20047;-72
2024/04/06 08:12:14;;;;;;;7.00;2.88;;;14.30;99.90;;;;;;5027765;28;20048;-72
2024/04/06 08:14:39;;;;;;;7.95;2.60;;;14.40;99.90;;;;;;5034792;28;20025;-71
2024/04/06 08:17:05;;;;;;;6.43;2.90;;;14.30;99.90;;;;;;5033797;28;20413;-72
2024/04/06 08:19:31;;;;;;;7.53;3.25;;;14.30;99.90;;;;;;5033538;28;20029;-72
2024/04/06 08:21:57;;;;;;;6.38;2.97;;;14.30;99.90;;;;;;5036097;28;20063;-72
2024/04/06 08:24:22;;;;;;;9.68;3.88;;;14.30;99.90;;;;;;5035928;28;20089;-72
2024/04/06 08:26:48;;;;;;;14.35;5.93;;;14.30;99.90;;;;;;5037023;28;20029;-72
2024/04/06 08:29:14;;;;;;;10.30;4.53;;;14.40;99.90;;;;;;5036445;28;20043;-72
2024/04/06 08:31:39;;;;;;;13.10;4.20;;;14.40;99.90;;;;;;5036625;28;20486;-71
2024/04/06 08:34:05;;;;;;;6.65;3.28;;;14.50;99.90;;;;;;5034824;28;20044;-71
2024/04/06 08:36:31;;;;;;;6.90;3.03;;;14.60;99.90;;;;;;5031935;28;20120;-70
2024/04/06 08:38:56;;;;;;;7.70;3.03;;;14.70;99.90;;;;;;5033034;28;20940;-72
2024/04/06 08:41:24;;;;;;;7.18;2.92;;;14.70;99.90;;;;;;5033873;28;20108;-72
2024/04/06 08:43:54;;;;;;;8.10;2.90;;;14.70;99.90;;;;;;5034090;28;20646;-72
2024/04/06 08:46:23;;;;;;;7.65;2.63;;;14.80;99.90;;;;;;5033886;28;20466;-71
2024/04/06 08:48:53;;;;;;;6.90;3.08;;;14.80;99.90;;;;;;5033713;28;20680;-72
2024/04/06 08:51:20;;;;;;;6.85;2.78;;;14.90;99.90;;;;;;5033984;28;20556;-72
2024/04/06 08:53:46;;;;;;;5.03;2.40;;;15.00;99.90;;;;;;5033922;28;20032;-72
2024/04/06 08:56:16;;;;;;;4.38;1.80;;;15.10;99.90;;;;;;5033644;28;20857;-72
2024/04/06 08:58:42;;;;;;;7.85;2.67;;;16.20;99.90;;;;;;5033539;28;20132;-71
2024/04/06 09:01:10;;;;;;;5.35;2.28;;;18.80;99.90;;;;;;5033124;28;20044;-71
2024/04/06 09:03:36;;;;;;;5.20;2.40;;;19.60;99.90;;;;;;5032638;28;20655;-71
2024/04/06 09:06:02;;;;;;;4.95;2.38;;;20.60;99.90;;;;;;5033174;28;20062;-71
2024/04/06 09:08:28;;;;;;;4.88;2.05;;;21.40;99.10;;;;;;5033072;28;20157;-71
2024/04/06 09:10:58;;;;;;;6.07;2.17;;;22.10;97.50;;;;;;5034903;28;20037;-71
2024/04/06 09:13:24;;;;;;;10.20;1.88;;;21.60;97.20;;;;;;5036468;28;20044;-72
2024/04/06 09:15:50;;;;;;;4.45;2.47;;;21.60;97.40;;;;;;5036203;28;20296;-71
2024/04/06 09:18:18;;;;;;;3.83;2.13;;;21.40;98.20;;;;;;5036132;28;20040;-71
2024/04/06 09:20:51;;;;;;;6.63;1.95;;;20.90;97.20;;;;;;5035578;28;20025;-71
2024/04/06 09:23:17;;;;;;;9.15;3.13;;;21.20;97.20;;;;;;5035560;28;20080;-71
2024/04/06 09:25:42;;;;;;;6.00;2.88;;;21.00;97.40;;;;;;5035696;28;20607;-72
2024/04/06 09:28:10;;;;;;;8.48;2.63;;;21.90;97.40;;;;;;5035974;28;20029;-72
2024/04/06 09:30:43;;;;;;;11.75;2.97;;;22.50;96.00;;;;;;5036121;28;20032;-72
2024/04/06 09:33:15;;;;;;;6.13;2.42;;;22.40;96.90;;;;;;5036152;28;20045;-72
2024/04/06 09:35:41;;;;;;;8.85;2.30;;;22.90;96.20;;;;;;5036600;28;20029;-72
2024/04/06 09:38:13;;;;;;;6.18;2.35;;;21.20;98.20;;;;;;5031907;28;20051;-72
2024/04/06 09:40:44;;;;;;;8.43;2.20;;;19.40;97.90;;;;;;5035488;28;20052;-72
2024/04/06 09:43:12;;;;;;;7.82;2.28;;;18.20;98.50;;;;;;5036803;28;20052;-72
2024/04/06 09:45:38;;;;;;;5.72;2.67;;;18.10;99.50;;;;;;5035608;28;20036;-73
2024/04/06 09:48:05;;;;;;;8.73;2.65;;;17.50;99.90;;;;;;5036538;28;20498;-75
2024/04/06 09:50:32;;;;;;;9.00;2.45;;;17.30;99.90;;;;;;5036858;28;20043;-75
2024/04/06 09:52:59;;;;;;;7.65;2.55;;;17.20;99.90;;;;;;5036257;28;20120;-72
2024/04/06 09:55:26;;;;;;;8.77;2.38;;;17.30;99.90;;;;;;5035633;28;20063;-71
2024/04/06 09:57:52;;;;;;;5.35;1.92;;;17.60;99.90;;;;;;5036179;28;20041;-71
2024/04/06 10:00:18;;;;;;;5.38;2.03;;;17.60;99.90;;;;;;5036225;28;20037;-71
2024/04/06 10:02:44;;;;;;;4.15;2.22;;;17.60;99.90;;;;;;5036216;28;20578;-74
2024/04/06 10:05:11;;;;;;;4.70;2.55;;;17.70;99.90;;;;;;5036008;28;20037;-72
2024/04/06 10:07:37;;;;;;;9.73;2.30;;;17.90;99.90;;;;;;5036227;28;20467;-73
2024/04/06 10:10:05;;;;;;;8.13;2.47;;;17.80;99.90;;;;;;5036418;28;20028;-73
2024/04/06 10:12:40;;;;;;;4.60;2.08;;;17.80;99.90;;;;;;5036950;28;20041;-72
2024/04/06 10:15:08;;;;;;;4.10;1.63;;;18.10;99.90;;;;;;5035852;28;20086;-72
2024/04/06 10:17:47;;;;;;;5.10;2.63;;;18.30;99.90;;;;;;5035940;28;20649;-73
2024/04/06 10:20:16;;;;;;;5.78;2.10;;;18.40;99.90;;;;;;5036549;28;20037;-72
2024/04/06 10:23:00;;;;;;;5.28;2.08;;;18.50;99.90;;;;;;5036193;28;20045;-73
2024/04/06 10:25:37;;;;;;;6.57;2.60;;;18.70;99.90;;;;;;5036391;28;20017;-73
2024/04/06 10:28:08;;;;;;;7.38;2.22;;;18.30;99.70;;;;;;5035503;28;20045;-73
2024/04/06 10:30:36;;;;;;;5.97;2.17;;;18.60;99.90;;;;;;5036514;28;20032;-73
2024/04/06 10:33:03;;;;;;;5.40;2.50;;;18.90;99.90;;;;;;5036003;28;20056;-72
2024/04/06 10:35:29;;;;;;;5.78;2.15;;;19.10;99.90;;;;;;5036082;28;20134;-73
2024/04/06 10:37:55;;;;;;;6.03;2.42;;;18.90;99.90;;;;;;5036355;28;20041;-73
2024/04/06 10:40:27;;;;;;;6.55;1.98;;;19.20;99.90;;;;;;5036165;28;20057;-73
2024/04/06 10:42:53;;;;;;;6.25;2.40;;;19.30;99.80;;;;;;5036177;28;20550;-73
2024/04/06 10:45:19;;;;;;;4.28;2.05;;;19.10;99.90;;;;;;5036409;28;20514;-73
2024/04/06 10:47:44;;;;;;;7.70;3.08;;;19.40;99.90;;;;;;5036192;28;20148;-73
2024/04/06 10:50:11;;;;;;;4.00;2.20;;;19.30;99.30;;;;;;5036818;28;20532;-73
2024/04/06 10:52:37;;;;;;;3.13;1.70;;;19.60;99.30;;;;;;5033599;28;20069;-73
2024/04/06 10:55:09;;;;;;;12.25;2.67;;;19.90;98.90;;;;;;5034179;28;20730;-73
2024/04/06 10:57:38;;;;;;;7.20;2.55;;;20.00;99.40;;;;;;5034904;28;20044;-73
2024/04/06 11:00:17;;;;;;;7.55;2.22;;;20.00;99.00;;;;;;5036284;28;20376;-73
2024/04/06 11:02:43;;;;;;;4.72;2.53;;;20.20;98.90;;;;;;5036288;28;20163;-73
2024/04/06 11:05:10;;;;;;;7.47;2.70;;;20.40;98.70;;;;;;5036189;28;20037;-73
2024/04/06 11:07:38;;;;;;;3.80;2.15;;;20.30;98.40;;;;;;5038624;28;20066;-73
2024/04/06 11:10:05;;;;;;;7.32;2.10;;;20.30;99.20;;;;;;5040190;28;20049;-73
2024/04/06 11:12:31;;;;;;;6.68;2.10;;;20.00;98.70;;;;;;5039709;28;20044;-73
2024/04/06 11:15:00;;;;;;;8.00;2.25;;;20.00;99.40;;;;;;5040085;28;20375;-73
2024/04/06 11:17:30;;;;;;;9.18;3.08;;;20.00;99.10;;;;;;5040072;28;20025;-73
2024/04/06 11:19:56;;;;;;;5.20;2.03;;;20.30;99.80;;;;;;5039996;28;20083;-73
2024/04/06 11:22:22;;;;;;;4.82;2.08;;;20.40;99.20;;;;;;5039249;28;20095;-73
2024/04/06 11:24:48;;;;;;;6.95;2.30;;;20.30;99.00;;;;;;5039599;28;20017;-73
2024/04/06 11:27:19;;;;;;;6.53;1.95;;;20.50;98.80;;;;;;5039175;28;20384;-73
2024/04/06 11:29:48;;;;;;;6.35;2.50;;;20.50;98.10;;;;;;5039160;28;20035;-73
2024/04/06 11:32:19;;;;;;;8.50;2.17;;;20.70;98.30;;;;;;5039279;28;20041;-72
2024/04/06 11:34:45;;;;;;;4.55;2.10;;;20.60;98.60;;;;;;5039385;28;20150;-73
2024/04/06 11:37:11;;;;;;;4.45;1.77;;;20.70;99.10;;;;;;5039654;28;20611;-73
2024/04/06 11:39:37;;;;;;;7.68;2.15;;;20.90;98.00;;;;;;5036186;28;20053;-74
2024/04/06 11:42:02;;;;;;;7.75;2.17;;;20.90;98.10;;;;;;5036794;28;20029;-73
2024/04/06 11:44:28;;;;;;;5.05;1.85;;;20.90;98.40;;;;;;5035536;28;20039;-73
2024/04/06 11:46:54;;;;;;;9.90;2.03;;;20.80;97.70;;;;;;5036245;28;20036;-73
2024/04/06 11:49:19;;;;;;;4.97;1.58;;;20.80;97.70;;;;;;5036621;28;20037;-73
2024/04/06 11:51:45;;;;;;;18.90;2.78;;;20.90;98.00;;;;;;5036615;28;20044;-73
2024/04/06 11:54:11;;;;;;;8.55;2.80;;;21.30;98.60;;;;;;5035608;28;20044;-73
2024/04/06 11:56:36;;;;;;;9.43;2.50;;;21.50;97.80;;;;;;5035433;28;20119;-73
2024/04/06 11:59:02;;;;;;;4.72;2.03;;;21.20;96.70;;;;;;5035543;28;20223;-73
2024/04/06 12:01:28;;;;;;;5.63;2.03;;;21.30;97.60;;;;;;5037829;28;21427;-73
2024/04/06 12:03:53;;;;;;;5.85;2.30;;;21.40;97.70;;;;;;5035096;28;20108;-73
2024/04/06 12:06:23;;;;;;;7.80;2.78;;;21.50;97.20;;;;;;5036761;28;20124;-73
2024/04/06 12:08:52;;;;;;;5.78;1.73;;;21.60;98.00;;;;;;5038506;28;20510;-73
2024/04/06 12:11:18;;;;;;;5.47;1.90;;;21.60;97.50;;;;;;5038673;28;20037;-73
2024/04/06 12:13:44;;;;;;;5.30;1.80;;;21.70;97.20;;;;;;5038593;28;20029;-73
2024/04/06 12:16:10;;;;;;;2.80;1.45;;;21.80;97.30;;;;;;5038798;28;20033;-73
2024/04/06 12:18:37;;;;;;;6.13;1.60;;;21.80;97.10;;;;;;5038044;28;20025;-73
2024/04/06 12:21:03;;;;;;;9.57;2.00;;;21.60;96.40;;;;;;5038159;28;20039;-73
2024/04/06 12:23:28;;;;;;;5.68;1.73;;;21.50;96.30;;;;;;5037185;28;20032;-73
2024/04/06 12:25:54;;;;;;;3.10;1.38;;;21.80;96.80;;;;;;5038342;28;20037;-73
2024/04/06 12:28:20;;;;;;;5.13;1.73;;;21.80;96.50;;;;;;5038256;28;20065;-73
2024/04/06 12:30:45;;;;;;;6.40;1.80;;;21.70;96.50;;;;;;5038224;28;20391;-73
2024/04/06 12:33:11;;;;;;;4.18;1.75;;;21.60;95.90;;;;;;5038139;28;20036;-73
2024/04/06 12:35:39;;;;;;;4.22;1.65;;;21.90;96.10;;;;;;5038478;28;20033;-73
2024/04/06 12:38:04;;;;;;;4.60;1.40;;;22.20;97.10;;;;;;5038440;28;20032;-73
2024/04/06 12:40:31;;;;;;;3.95;1.63;;;22.40;96.70;;;;;;5038283;28;20423;-73
2024/04/06 12:42:56;;;;;;;2.70;1.40;;;22.70;96.10;;;;;;5036421;28;20037;-73